Time;durP1;ratioP1;P1;durP2;ratioP2;P2;SDS_P1;SDS_P2;PMS_P1;PMS_P2;Temp;Humidity;BMP_temperature;BMP_pressure;BME280_temperature;BME280_humidity;BME280_pressure;Samples;Min_cycle;Max_cycle;Signal;HPM_P1;HPM_P2
2023/04/02 00:00:20;;;;;;;21.35;3.98;;;;;;;6.28;100.00;99383.95;1687043;85;21750;-86
2023/04/02 00:03:27;;;;;;;19.30;5.00;;;;;;;6.30;100.00;99389.20;1704705;84;21209;-80
2023/04/02 00:06:43;;;;;;;12.98;4.00;;;;;;;6.38;100.00;99390.05;1673825;84;21198;-80
2023/04/02 00:09:46;;;;;;;18.25;3.47;;;;;;;6.37;100.00;99387.00;1684633;85;21204;-87
2023/04/02 00:13:14;;;;;;;14.55;5.22;;;;;;;6.36;100.00;99392.09;1709172;84;21780;-80
2023/04/02 00:16:22;;;;;;;15.32;3.98;;;;;;;6.39;100.00;99386.30;1709109;84;21210;-81
2023/04/02 00:19:32;;;;;;;15.65;5.03;;;;;;;6.46;100.00;99398.70;1709158;83;21210;-87
2023/04/02 00:22:38;;;;;;;21.40;3.47;;;;;;;6.52;100.00;99401.23;1684729;85;21176;-87
2023/04/02 00:25:46;;;;;;;17.10;4.37;;;;;;;6.53;100.00;99400.20;1709171;84;21196;-79
2023/04/02 00:28:51;;;;;;;12.73;3.75;;;;;;;6.52;100.00;99414.81;1709160;84;21165;-79
2023/04/02 00:32:00;;;;;;;12.65;3.45;;;;;;;6.55;100.00;99414.48;1707864;83;21220;-87
2023/04/02 00:35:06;;;;;;;14.15;4.08;;;;;;;6.49;100.00;99409.20;1709081;84;21794;-78
2023/04/02 00:38:12;;;;;;;20.23;3.75;;;;;;;6.59;100.00;99403.61;1707743;83;21726;-87
2023/04/02 00:41:28;;;;;;;10.80;4.25;;;;;;;6.47;100.00;99411.26;1709152;84;21174;-86
2023/04/02 00:44:33;;;;;;;17.48;3.62;;;;;;;6.57;100.00;99403.77;1707627;83;21794;-86
2023/04/02 00:47:43;;;;;;;16.90;3.65;;;;;;;6.51;100.00;99403.11;1702628;84;21186;-80
2023/04/02 00:50:49;;;;;;;10.28;3.30;;;;;;;6.69;100.00;99411.58;1709098;84;21207;-86
2023/04/02 00:53:54;;;;;;;10.88;3.30;;;;;;;6.63;100.00;99409.89;1709144;84;21197;-79
2023/04/02 00:57:02;;;;;;;15.75;3.37;;;;;;;6.76;100.00;99408.48;1709115;84;21165;-85
2023/04/02 01:00:35;;;;;;;14.00;3.50;;;;;;;6.69;100.00;99404.78;1709092;84;21213;-79
2023/04/02 01:03:43;;;;;;;14.95;3.58;;;;;;;6.70;100.00;99408.67;1709054;84;21723;-80
2023/04/02 01:06:52;;;;;;;15.65;3.72;;;;;;;6.71;100.00;99402.21;1714633;82;21197;-79
2023/04/02 01:10:22;;;;;;;14.78;4.75;;;;;;;6.73;100.00;99411.54;1721849;83;21212;-79
2023/04/02 01:13:59;;;;;;;12.55;4.60;;;;;;;6.79;100.00;99404.92;1689485;85;21772;-86
2023/04/02 01:17:48;;;;;;;18.12;4.25;;;;;;;6.56;100.00;99408.02;1688834;85;21169;-79
2023/04/02 01:21:30;;;;;;;16.65;3.92;;;;;;;6.44;100.00;99406.67;1688288;85;21244;-85
2023/04/02 01:24:38;;;;;;;17.25;4.87;;;;;;;6.28;100.00;99404.83;1688565;85;21208;-87
2023/04/02 01:27:51;;;;;;;17.10;4.28;;;;;;;6.01;100.00;99404.66;1689170;85;21264;-80
2023/04/02 01:31:00;;;;;;;17.98;5.40;;;;;;;6.11;100.00;99401.26;1687764;85;21228;-79
2023/04/02 01:34:05;;;;;;;17.35;4.08;;;;;;;6.27;100.00;99398.55;1688848;85;21231;-79
2023/04/02 01:37:48;;;;;;;10.80;4.42;;;;;;;6.26;100.00;99400.09;1688912;85;21185;-86
2023/04/02 01:41:00;;;;;;;11.95;4.47;;;;;;;6.23;100.00;99401.27;1688446;85;21204;-87
2023/04/02 01:44:22;;;;;;;11.12;3.75;;;;;;;6.24;100.00;99400.75;1688942;85;21235;-88
2023/04/02 01:47:30;;;;;;;13.58;3.62;;;;;;;6.23;100.00;99399.91;1689451;85;21745;-87
2023/04/02 01:50:37;;;;;;;13.45;2.85;;;;;;;6.34;100.00;99400.91;1687472;85;21201;-87
2023/04/02 01:53:32;;;;;;;18.73;3.30;;;;;;;6.36;100.00;99403.47;1690863;85;21753;-81
2023/04/02 01:56:18;;;;;;;10.80;2.83;;;;;;;6.25;100.00;99411.44;1689184;85;21174;-86
2023/04/02 01:59:14;;;;;;;12.63;5.03;;;;;;;6.15;100.00;99408.05;1688570;85;21216;-88
2023/04/02 02:02:22;;;;;;;15.60;4.35;;;;;;;6.23;100.00;99405.86;1689164;85;21181;-81
2023/04/02 02:05:29;;;;;;;15.60;5.15;;;;;;;6.30;100.00;99403.62;1689446;85;21204;-88
2023/04/02 02:08:54;;;;;;;14.35;2.90;;;;;;;6.32;100.00;99396.17;1676989;85;21201;-87
2023/04/02 02:12:01;;;;;;;13.43;4.58;;;;;;;6.37;100.00;99400.58;1684635;85;21205;-80
2023/04/02 02:15:07;;;;;;;12.93;3.47;;;;;;;6.32;100.00;99402.96;1709053;84;21229;-80
2023/04/02 02:18:14;;;;;;;14.65;2.60;;;;;;;6.36;100.00;99394.81;1709045;84;21758;-80
2023/04/02 02:21:21;;;;;;;8.28;2.58;;;;;;;6.41;100.00;99392.94;1708845;84;21174;-81
2023/04/02 02:24:32;;;;;;;12.53;2.67;;;;;;;6.39;100.00;99390.89;1709298;84;21198;-87
2023/04/02 02:27:42;;;;;;;15.13;4.42;;;;;;;6.48;100.00;99391.22;1683899;85;21163;-88
2023/04/02 02:31:00;;;;;;;14.80;4.08;;;;;;;6.53;100.00;99397.48;1707678;84;21215;-80
2023/04/02 02:34:15;;;;;;;10.03;2.47;;;;;;;6.47;100.00;99395.47;1690380;84;21169;-87
2023/04/02 02:37:34;;;;;;;10.60;2.77;;;;;;;6.50;100.00;99398.70;1708069;84;21173;-80
2023/04/02 02:40:47;;;;;;;10.58;2.70;;;;;;;6.60;99.65;99402.59;1707847;84;21772;-88
2023/04/02 02:43:51;;;;;;;7.28;2.40;;;;;;;6.51;99.96;99407.70;1704055;84;21771;-86
2023/04/02 02:46:56;;;;;;;17.10;2.77;;;;;;;6.51;99.75;99401.75;1703554;84;21734;-87
2023/04/02 02:50:03;;;;;;;;;;;;;;;6.56;99.51;99409.38;1705723;84;21723;-87
2023/04/02 02:53:12;;;;;;;6.25;2.58;;;;;;;6.53;99.13;99404.28;1703608;84;20223;-80
2023/04/02 02:56:20;;;;;;;12.43;2.77;;;;;;;6.64;98.78;99407.50;1703546;84;21198;-81
2023/04/02 02:59:26;;;;;;;9.20;2.67;;;;;;;6.72;98.20;99407.98;1703499;84;21201;-81
2023/04/02 03:02:33;;;;;;;11.18;2.95;;;;;;;6.82;97.12;99417.30;1703461;84;21221;-81
2023/04/02 03:05:40;;;;;;;16.90;3.25;;;;;;;6.79;96.58;99415.79;1689956;84;21186;-87
2023/04/02 03:09:10;;;;;;;8.83;3.12;;;;;;;6.70;96.58;99424.98;1705126;82;21743;-87
2023/04/02 03:12:59;;;;;;;10.43;2.55;;;;;;;6.72;96.19;99422.92;1704285;84;21170;-87
2023/04/02 03:16:26;;;;;;;9.70;2.50;;;;;;;6.69;95.77;99431.45;1704327;84;21193;-88
2023/04/02 03:19:30;;;;;;;9.78;3.42;;;;;;;6.73;95.03;99433.28;1704082;84;21194;-80
2023/04/02 03:22:28;;;;;;;9.30;2.37;;;;;;;6.77;94.64;99430.05;1704294;84;21213;-87
2023/04/02 03:25:37;;;;;;;7.40;1.92;;;;;;;6.69;94.79;99431.95;1704257;84;21238;-80
2023/04/02 03:28:36;;;;;;;9.60;2.22;;;;;;;6.76;94.57;99437.02;1704453;84;21166;-88
2023/04/02 03:32:08;;;;;;;7.05;2.20;;;;;;;6.80;93.86;99440.58;1704274;84;21169;-81
2023/04/02 03:35:26;;;;;;;8.03;2.40;;;;;;;6.72;94.06;99443.31;1704192;84;21178;-88
2023/04/02 03:38:55;;;;;;;5.83;2.17;;;;;;;6.84;93.12;99444.66;1704257;84;21165;-81
2023/04/02 03:42:24;;;;;;;7.70;2.65;;;;;;;6.73;93.18;99436.87;1704262;84;21170;-80
2023/04/02 03:45:33;;;;;;;6.92;2.50;;;;;;;6.91;91.71;99433.92;1704307;84;21209;-80
2023/04/02 03:48:53;;;;;;;7.78;3.22;;;;;;;6.86;89.91;99435.80;1704321;84;21731;-80
2023/04/02 03:52:13;;;;;;;15.30;6.42;;;;;;;6.87;88.95;99434.80;1704090;84;21206;-80
2023/04/02 03:55:28;;;;;;;37.15;13.58;;;;;;;6.89;88.16;99441.42;1704339;84;21201;-87
2023/04/02 03:58:54;;;;;;;42.23;16.80;;;;;;;6.72;89.09;99439.75;1690620;84;21162;-87
2023/04/02 04:02:33;;;;;;;46.88;21.20;;;;;;;7.02;88.64;99440.37;1704315;84;21186;-86
2023/04/02 04:05:47;;;;;;;36.93;13.78;;;;;;;6.90;88.28;99444.47;1703133;84;21177;-87
2023/04/02 04:09:00;;;;;;;46.92;17.60;;;;;;;6.80;87.39;99439.22;1704587;82;21719;-87
2023/04/02 04:12:30;;;;;;;46.70;19.02;;;;;;;6.80;86.64;99438.38;1704067;84;21186;-84
2023/04/02 04:15:55;;;;;;;40.15;16.77;;;;;;;6.73;85.15;99449.11;1703098;84;21217;-79
2023/04/02 04:19:11;;;;;;;45.83;18.37;;;;;;;6.85;84.08;99451.78;1669943;83;21718;-80
2023/04/02 04:22:32;;;;;;;49.03;19.27;;;;;;;6.84;83.47;99447.89;1683853;83;21240;-79
2023/04/02 04:25:40;;;;;;;40.38;16.52;;;;;;;7.04;82.88;99446.47;1704318;84;21197;-86
2023/04/02 04:29:27;;;;;;;35.50;13.70;;;;;;;6.66;84.15;99452.16;1704301;84;21170;-82
2023/04/02 04:32:37;;;;;;;32.10;11.78;;;;;;;6.58;85.04;99451.64;1704327;84;21170;-79
2023/04/02 04:35:55;;;;;;;29.90;12.33;;;;;;;6.61;85.07;99452.67;1704259;84;21194;-82
2023/04/02 04:39:00;;;;;;;32.30;12.35;;;;;;;6.63;85.46;99453.85;1704316;84;21177;-79
2023/04/02 04:42:08;;;;;;;33.50;13.45;;;;;;;6.65;85.49;99451.83;1704332;84;21505;-79
2023/04/02 04:45:37;;;;;;;40.35;15.55;;;;;;;6.98;84.22;99450.41;1704313;84;21210;-79
2023/04/02 04:49:12;;;;;;;;;;;;;;;6.99;82.83;99449.38;1706872;84;21200;-86
2023/04/02 04:52:29;;;;;;;40.70;15.53;;;;;;;7.09;80.92;99450.86;1704258;84;20662;-79
2023/04/02 04:55:45;;;;;;;41.98;13.35;;;;;;;7.14;80.25;99450.34;1704194;84;21177;-87
2023/04/02 04:59:17;;;;;;;35.50;10.72;;;;;;;7.21;78.92;99454.07;1702756;84;21175;-86
2023/04/02 05:02:16;;;;;;;26.05;9.65;;;;;;;7.16;79.06;99449.67;1702815;84;21174;-79
2023/04/02 05:05:26;;;;;;;16.20;6.22;;;;;;;7.21;78.17;99453.23;1703430;84;21229;-79
2023/04/02 05:08:36;;;;;;;14.35;5.40;;;;;;;7.09;77.98;99450.02;1702900;84;21197;-87
2023/04/02 05:11:48;;;;;;;10.40;3.95;;;;;;;7.14;77.41;99451.70;1728173;81;21183;-87
2023/04/02 05:15:14;;;;;;;4.78;2.98;;;;;;;7.15;76.84;99444.75;1718238;82;21203;-80
2023/04/02 05:18:47;;;;;;;8.10;3.12;;;;;;;7.20;76.31;99454.22;1736164;82;21170;-80
2023/04/02 05:22:06;;;;;;;4.80;2.80;;;;;;;7.15;76.75;99458.34;1737375;82;21206;-80
2023/04/02 05:25:27;;;;;;;8.10;2.87;;;;;;;7.22;77.00;99460.36;1737550;82;21223;-86
2023/04/02 05:28:51;;;;;;;7.10;2.87;;;;;;;7.38;76.24;99454.84;1737596;82;21163;-80
2023/04/02 05:32:23;;;;;;;6.47;3.17;;;;;;;7.53;75.05;99450.85;1737445;82;21183;-87
2023/04/02 05:35:32;;;;;;;4.62;2.90;;;;;;;7.53;75.19;99446.29;1737104;82;21192;-85
2023/04/02 05:38:40;;;;;;;9.58;3.30;;;;;;;7.65;75.95;99449.44;1737385;82;21191;-82
2023/04/02 05:41:50;;;;;;;;;;;;;;;7.86;74.30;99447.47;1740003;82;21179;-79
2023/04/02 05:45:36;;;;;;;8.78;3.60;;;;;;;7.86;73.74;99448.83;1721708;81;20221;-86
2023/04/02 05:48:47;;;;;;;7.40;3.52;;;;;;;7.99;72.73;99444.13;1710720;84;21553;-78
2023/04/02 05:51:57;;;;;;;7.67;3.58;;;;;;;7.98;71.68;99449.25;1698688;84;21203;-85
2023/04/02 05:55:26;;;;;;;12.50;3.70;;;;;;;8.06;71.33;99443.75;1710646;84;21203;-86
2023/04/02 05:58:54;;;;;;;8.60;3.80;;;;;;;8.20;69.71;99448.41;1710602;84;21469;-80
2023/04/02 06:02:10;;;;;;;11.73;4.80;;;;;;;8.30;69.84;99445.44;1743177;82;21742;-79
2023/04/02 06:05:22;;;;;;;12.88;4.45;;;;;;;8.33;68.74;99447.30;1742834;82;21192;-86
2023/04/02 06:08:34;;;;;;;15.38;5.65;;;;;;;8.51;68.10;99435.23;1742102;82;21199;-79
2023/04/02 06:11:45;;;;;;;15.28;5.75;;;;;;;8.52;65.97;99451.94;1740104;81;21782;-87
2023/04/02 06:14:53;;;;;;;16.40;5.70;;;;;;;8.50;64.00;99451.26;1742461;82;21224;-79
2023/04/02 06:18:01;;;;;;;18.23;6.12;;;;;;;8.59;64.39;99440.61;1741498;82;21710;-85
2023/04/02 06:21:09;;;;;;;16.27;5.55;;;;;;;8.66;62.96;99439.70;1741624;82;21550;-83
2023/04/02 06:24:17;;;;;;;15.20;6.37;;;;;;;8.56;63.12;99439.13;1742892;82;21750;-80
2023/04/02 06:27:23;;;;;;;21.97;8.28;;;;;;;8.43;62.57;99442.46;1742814;82;21173;-86
2023/04/02 06:30:35;;;;;;;27.42;10.40;;;;;;;8.33;63.83;99438.27;1742866;82;21763;-80
2023/04/02 06:33:44;;;;;;;26.45;10.05;;;;;;;8.16;65.69;99447.08;1743015;82;21153;-81
2023/04/02 06:36:51;;;;;;;29.42;11.55;;;;;;;8.16;66.18;99448.44;1742960;82;21212;-81
2023/04/02 06:39:59;;;;;;;38.48;12.68;;;;;;;8.15;66.98;99453.56;1742873;82;21169;-81
2023/04/02 06:43:06;;;;;;;37.95;13.20;;;;;;;8.16;65.74;99457.97;1742974;82;21165;-87
2023/04/02 06:46:27;;;;;;;37.83;13.60;;;;;;;8.10;64.91;99448.66;1742871;82;21213;-81
2023/04/02 06:49:47;;;;;;;38.38;14.15;;;;;;;8.05;65.10;99451.59;1734954;82;21236;-86
2023/04/02 06:52:58;;;;;;;33.58;13.72;;;;;;;8.08;64.64;99446.61;1742276;82;21249;-81
2023/04/02 06:56:30;;;;;;;32.48;13.05;;;;;;;8.06;65.77;99447.84;1741407;82;21784;-86
2023/04/02 06:59:38;;;;;;;36.58;13.45;;;;;;;8.11;64.56;99453.59;1734272;82;21228;-86
2023/04/02 07:02:47;;;;;;;37.33;14.45;;;;;;;8.16;64.47;99453.37;1743263;82;21626;-80
2023/04/02 07:05:53;;;;;;;42.10;15.40;;;;;;;8.27;64.42;99448.00;1740714;82;21209;-86
2023/04/02 07:08:59;;;;;;;29.75;12.13;;;;;;;8.37;63.84;99448.62;1742915;82;21181;-87
2023/04/02 07:12:08;;;;;;;24.10;8.78;;;;;;;8.36;62.13;99451.02;1740681;82;21800;-80
2023/04/02 07:15:18;;;;;;;17.80;7.72;;;;;;;8.45;59.63;99451.29;1736615;82;21244;-80
2023/04/02 07:18:38;;;;;;;12.58;4.50;;;;;;;8.32;61.73;99451.02;1737464;82;21166;-80
2023/04/02 07:21:45;;;;;;;8.60;3.10;;;;;;;8.35;62.08;99448.46;1718556;82;21165;-86
2023/04/02 07:24:52;;;;;;;6.45;2.60;;;;;;;8.51;60.68;99446.13;1737320;82;21173;-86
2023/04/02 07:28:00;;;;;;;7.90;2.85;;;;;;;8.68;59.24;99445.80;1737467;82;21151;-81
2023/04/02 07:31:06;;;;;;;5.35;2.72;;;;;;;8.85;57.61;99450.59;1737409;82;21207;-80
2023/04/02 07:34:12;;;;;;;2.92;1.90;;;;;;;8.66;58.77;99447.04;1737352;82;21189;-85
2023/04/02 07:37:20;;;;;;;4.85;2.00;;;;;;;8.66;58.70;99451.97;1736095;81;21178;-80
2023/04/02 07:40:27;;;;;;;2.47;1.45;;;;;;;8.82;56.13;99442.77;1737313;82;21185;-80
2023/04/02 07:43:34;;;;;;;2.20;1.30;;;;;;;8.95;55.00;99448.95;1737413;82;21751;-84
2023/04/02 07:46:39;;;;;;;1.92;1.30;;;;;;;9.11;54.02;99432.91;1737436;82;21166;-86
2023/04/02 07:49:39;;;;;;;3.58;1.95;;;;;;;9.39;51.53;99432.56;1736062;82;21734;-84
2023/04/02 07:52:51;;;;;;;4.80;2.17;;;;;;;9.47;50.00;99431.63;1737440;82;21248;-82
2023/04/02 07:56:00;;;;;;;5.62;2.65;;;;;;;9.53;48.94;99424.03;1737377;81;21738;-80
2023/04/02 07:59:05;;;;;;;4.15;2.37;;;;;;;9.70;46.66;99421.41;1737500;82;21197;-80
2023/04/02 08:02:11;;;;;;;3.98;1.70;;;;;;;9.77;45.99;99426.94;1737590;82;21170;-85
2023/04/02 08:05:17;;;;;;;8.53;3.33;;;;;;;9.96;45.05;99424.09;1737554;82;21201;-85
2023/04/02 08:08:23;;;;;;;7.80;2.42;;;;;;;10.02;45.47;99425.20;1737448;82;21730;-85
2023/04/02 08:11:29;;;;;;;3.75;1.80;;;;;;;10.10;44.20;99421.83;1737307;82;21205;-85
2023/04/02 08:14:37;;;;;;;6.62;2.10;;;;;;;10.29;42.65;99413.53;1732201;82;21201;-85
2023/04/02 08:17:43;;;;;;;5.12;1.47;;;;;;;10.31;41.64;99416.93;1732502;83;21169;-84
2023/04/02 08:20:49;;;;;;;1.82;1.15;;;;;;;10.31;40.48;99416.93;1711394;84;21249;-85
2023/04/02 08:23:56;;;;;;;2.85;1.40;;;;;;;10.44;40.60;99409.34;1712004;84;21770;-80
2023/04/02 08:27:03;;;;;;;3.75;1.70;;;;;;;10.52;38.36;99409.73;1712499;84;21225;-84
2023/04/02 08:30:10;;;;;;;4.15;1.80;;;;;;;10.49;38.73;99399.53;1711834;84;21204;-80
2023/04/02 08:33:16;;;;;;;5.33;2.30;;;;;;;10.61;39.47;99408.02;1712427;84;21252;-83
2023/04/02 08:36:25;;;;;;;8.38;4.80;;;;;;;10.72;39.67;99401.16;1711143;84;21710;-85
2023/04/02 08:39:33;;;;;;;25.20;7.40;;;;;;;10.81;39.82;99404.06;1711137;84;21192;-84
2023/04/02 08:43:10;;;;;;;24.00;8.40;;;;;;;10.97;40.74;99402.40;1711197;84;21205;-85
2023/04/02 08:46:27;;;;;;;18.95;8.98;;;;;;;10.91;41.35;99392.23;1712526;84;21228;-80
2023/04/02 08:49:51;;;;;;;23.22;10.25;;;;;;;11.01;42.63;99398.73;1712084;84;21256;-79
2023/04/02 08:52:56;;;;;;;26.95;8.83;;;;;;;11.06;43.11;99397.61;1712522;84;21201;-85
2023/04/02 08:56:28;;;;;;;21.45;9.53;;;;;;;11.19;44.17;99400.40;1692516;84;21726;-82
2023/04/02 08:59:40;;;;;;;20.90;8.83;;;;;;;11.17;44.90;99409.34;1709549;84;21184;-85
2023/04/02 09:02:53;;;;;;;14.65;6.50;;;;;;;11.19;46.22;99416.81;1688199;84;21195;-86
2023/04/02 09:05:59;;;;;;;9.43;4.95;;;;;;;11.20;46.75;99419.06;1732517;83;21165;-81
2023/04/02 09:09:05;;;;;;;14.63;7.12;;;;;;;11.26;47.04;99425.93;1732501;83;22024;-81
2023/04/02 09:12:11;;;;;;;18.48;7.65;;;;;;;11.28;47.86;99421.61;1731824;83;21138;-86
2023/04/02 09:15:30;;;;;;;16.48;7.97;;;;;;;11.23;47.57;99428.22;1726755;83;21138;-81
2023/04/02 09:18:37;;;;;;;19.40;8.55;;;;;;;11.14;48.98;99431.63;1728837;83;21150;-81
2023/04/02 09:21:50;;;;;;;23.10;7.00;;;;;;;10.81;50.33;99435.52;1731287;82;21150;-81
2023/04/02 09:25:03;;;;;;;47.80;17.92;;;;;;;10.70;50.77;99436.08;1728217;83;21718;-81
2023/04/02 09:28:10;;;;;;;23.00;9.60;;;;;;;10.66;50.79;99440.25;1710868;84;21773;-86
2023/04/02 09:31:44;;;;;;;51.25;24.90;;;;;;;10.67;50.73;99437.83;1708844;84;21221;-86
2023/04/02 09:34:51;;;;;;;8.88;4.20;;;;;;;10.63;51.54;99450.20;1711633;84;21842;-81
2023/04/02 09:38:23;;;;;;;6.58;2.60;;;;;;;10.73;52.21;99453.47;1698461;84;21174;-81
2023/04/02 09:41:30;;;;;;;6.55;2.87;;;;;;;10.78;51.39;99445.52;1688578;85;21183;-80
2023/04/02 09:44:35;;;;;;;6.65;3.47;;;;;;;10.93;51.24;99451.72;1711211;84;21218;-80
2023/04/02 09:47:42;;;;;;;3.90;2.40;;;;;;;11.04;51.19;99453.58;1732728;83;21720;-80
2023/04/02 09:50:49;;;;;;;5.17;2.40;;;;;;;11.07;50.74;99454.55;1732641;83;21201;-84
2023/04/02 09:53:56;;;;;;;4.72;2.20;;;;;;;10.64;50.44;99451.39;1732067;83;21162;-85
2023/04/02 09:57:10;;;;;;;3.35;2.05;;;;;;;10.31;49.32;99438.80;1732155;83;21209;-80
2023/04/02 10:00:30;;;;;;;4.25;2.47;;;;;;;10.16;50.64;99443.42;1712610;84;21221;-85
2023/04/02 10:03:40;;;;;;;7.53;2.25;;;;;;;10.26;50.51;99432.20;1711344;84;21719;-86
2023/04/02 10:06:47;;;;;;;3.40;1.90;;;;;;;10.30;50.59;99438.45;1717156;83;21780;-80
2023/04/02 10:09:53;;;;;;;4.40;2.20;;;;;;;10.32;49.82;99430.91;1681783;84;21726;-85
2023/04/02 10:13:20;;;;;;;3.08;2.02;;;;;;;10.55;50.77;99429.86;1716690;83;21765;-80
2023/04/02 10:16:37;;;;;;;3.42;1.65;;;;;;;10.36;50.15;99410.34;1705130;83;21209;-86
2023/04/02 10:19:49;;;;;;;3.25;1.50;;;;;;;10.49;48.42;99404.13;1704329;84;21201;-86
2023/04/02 10:22:55;;;;;;;3.75;2.02;;;;;;;10.53;48.24;99401.84;1703050;84;21217;-86
2023/04/02 10:26:21;;;;;;;3.02;2.05;;;;;;;10.53;48.87;99404.06;1704770;84;21778;-86
2023/04/02 10:29:34;;;;;;;4.12;1.98;;;;;;;10.63;49.72;99394.14;1704803;84;21854;-86
2023/04/02 10:33:06;;;;;;;2.98;1.82;;;;;;;10.80;49.79;99390.06;1704873;84;21165;-81
2023/04/02 10:36:16;;;;;;;2.70;1.87;;;;;;;10.79;49.56;99394.38;1703427;84;21229;-80
2023/04/02 10:39:37;;;;;;;3.42;1.62;;;;;;;10.80;49.83;99396.06;1704761;84;21213;-81
2023/04/02 10:42:50;;;;;;;5.42;2.12;;;;;;;10.79;49.96;99392.48;1704679;84;21206;-85
2023/04/02 10:46:05;;;;;;;2.92;1.70;;;;;;;10.89;49.63;99392.13;1704723;84;21189;-86
2023/04/02 10:49:32;;;;;;;4.62;2.00;;;;;;;11.16;49.57;99395.88;1704786;84;21213;-86
2023/04/02 10:52:35;;;;;;;6.40;1.90;;;;;;;11.38;47.89;99393.33;1704890;84;21201;-81
2023/04/02 10:55:31;;;;;;;4.58;2.35;;;;;;;11.46;46.72;99390.95;1704298;84;21789;-86
2023/04/02 10:58:28;;;;;;;2.75;1.90;;;;;;;11.70;47.78;99399.15;1704635;84;21185;-86
2023/04/02 11:01:32;;;;;;;5.40;1.90;;;;;;;11.95;44.11;99393.97;1704804;84;21750;-81
2023/04/02 11:04:51;;;;;;;9.13;2.00;;;;;;;11.97;44.82;99391.36;1704854;84;21228;-87
2023/04/02 11:08:06;;;;;;;5.45;2.50;;;;;;;11.96;44.08;99396.53;1704803;84;21206;-86
2023/04/02 11:11:25;;;;;;;6.20;3.37;;;;;;;11.82;43.81;99377.00;1704842;84;21205;-81
2023/04/02 11:14:36;;;;;;;10.68;4.22;;;;;;;11.89;42.24;99383.84;1704792;84;21742;-81
2023/04/02 11:17:42;;;;;;;8.83;3.37;;;;;;;11.79;43.15;99388.33;1702801;83;21746;-81
2023/04/02 11:21:09;;;;;;;8.88;3.62;;;;;;;11.70;43.15;99385.45;1703535;84;21221;-81
2023/04/02 11:24:32;;;;;;;8.55;4.22;;;;;;;11.63;44.11;99384.60;1704662;84;21770;-82
2023/04/02 11:27:39;;;;;;;11.97;5.42;;;;;;;11.49;44.67;99384.55;1704731;84;21208;-81
2023/04/02 11:30:45;;;;;;;5.03;3.00;;;;;;;11.51;40.85;99385.70;1704678;84;21775;-86
2023/04/02 11:33:51;;;;;;;4.78;2.75;;;;;;;11.50;40.81;99373.06;1703295;84;21181;-81
2023/04/02 11:37:05;;;;;;;9.68;3.75;;;;;;;11.44;40.23;99373.90;1704696;84;21750;-80
2023/04/02 11:40:14;;;;;;;10.88;2.77;;;;;;;11.47;41.73;99374.30;1704693;84;21221;-81
2023/04/02 11:43:44;;;;;;;4.70;2.25;;;;;;;11.48;41.53;99380.12;1705005;84;21209;-81
2023/04/02 11:46:50;;;;;;;4.60;2.20;;;;;;;11.39;42.52;99367.66;1704813;84;21169;-81
2023/04/02 11:50:05;;;;;;;3.25;1.87;;;;;;;11.37;42.58;99379.33;1704701;84;21201;-86
2023/04/02 11:53:20;;;;;;;10.43;2.42;;;;;;;11.45;42.78;99375.05;1704791;84;21170;-82
2023/04/02 11:56:45;;;;;;;2.37;1.60;;;;;;;11.27;43.71;99382.97;1704715;84;21213;-81
2023/04/02 11:59:58;;;;;;;3.75;2.30;;;;;;;11.29;44.21;99368.54;1704557;84;21266;-81
2023/04/02 12:03:31;;;;;;;1.87;1.32;;;;;;;11.17;43.16;99371.03;1704762;84;21165;-81
2023/04/02 12:06:56;;;;;;;3.92;2.30;;;;;;;11.16;43.38;99375.34;1704541;84;21162;-81
2023/04/02 12:10:06;;;;;;;2.70;1.70;;;;;;;11.15;44.17;99372.27;1704456;84;21208;-81
2023/04/02 12:13:16;;;;;;;2.05;1.42;;;;;;;11.12;44.07;99390.48;1704494;84;21271;-81
2023/04/02 12:16:20;;;;;;;2.30;1.40;;;;;;;11.05;44.93;99386.32;1689755;84;21237;-86
2023/04/02 12:19:29;;;;;;;3.22;1.65;;;;;;;11.00;44.30;99384.19;1693799;84;21212;-80
2023/04/02 12:22:40;;;;;;;4.37;1.80;;;;;;;11.00;43.94;99387.45;1697260;84;21214;-86
2023/04/02 12:25:48;;;;;;;2.55;1.55;;;;;;;10.98;43.83;99388.19;1693953;84;21750;-86
2023/04/02 12:28:55;;;;;;;4.97;1.75;;;;;;;10.81;45.49;99394.48;1694564;84;21757;-84
2023/04/02 12:32:03;;;;;;;3.20;1.85;;;;;;;10.78;45.94;99383.97;1695169;84;21184;-80
2023/04/02 12:35:08;;;;;;;4.85;2.15;;;;;;;10.57;47.56;99379.38;1695208;84;21220;-86
2023/04/02 12:38:32;;;;;;;5.12;1.65;;;;;;;10.44;48.58;99384.73;1695091;84;21201;-85
2023/04/02 12:41:39;;;;;;;4.22;2.35;;;;;;;10.36;53.28;99407.61;1695198;84;21177;-81
2023/04/02 12:44:45;;;;;;;3.85;2.00;;;;;;;9.94;55.36;99392.89;1695151;84;21189;-82
2023/04/02 12:47:54;;;;;;;6.58;2.00;;;;;;;9.70;57.70;99387.80;1690247;84;21204;-88
2023/04/02 12:50:59;;;;;;;3.75;1.70;;;;;;;9.63;57.05;99393.17;1695276;84;21813;-87
2023/04/02 12:54:05;;;;;;;4.17;2.02;;;;;;;9.58;58.23;99390.17;1693866;84;21169;-81
2023/04/02 12:57:35;;;;;;;7.92;3.67;;;;;;;9.52;58.57;99387.38;1693797;84;21208;-87
2023/04/02 13:00:42;;;;;;;6.58;3.50;;;;;;;9.71;57.71;99385.39;1693805;84;21185;-81
2023/04/02 13:03:49;;;;;;;11.15;4.80;;;;;;;9.63;57.57;99389.59;1694979;84;21189;-81
2023/04/02 13:06:59;;;;;;;23.90;9.18;;;;;;;9.64;58.00;99388.03;1694960;84;21180;-88
2023/04/02 13:10:10;;;;;;;10.82;5.15;;;;;;;9.75;57.10;99391.31;1695379;84;21231;-88
2023/04/02 13:13:23;;;;;;;9.38;3.87;;;;;;;9.73;58.05;99388.76;1695448;84;21177;-81
2023/04/02 13:16:43;;;;;;;4.60;2.25;;;;;;;9.97;55.46;99384.31;1694687;84;21192;-82
2023/04/02 13:19:48;;;;;;;4.95;1.80;;;;;;;9.94;55.66;99384.69;1697969;84;21584;-81
2023/04/02 13:22:55;;;;;;;5.35;1.60;;;;;;;9.88;57.05;99389.58;1698705;84;21235;-80
2023/04/02 13:26:03;;;;;;;3.50;1.60;;;;;;;9.84;58.07;99388.80;1699127;84;21233;-87
2023/04/02 13:29:31;;;;;;;5.00;1.98;;;;;;;9.70;58.35;99395.99;1699254;84;21335;-82
2023/04/02 13:32:38;;;;;;;3.47;1.37;;;;;;;9.66;57.58;99403.72;1700398;84;21186;-88
2023/04/02 13:35:45;;;;;;;2.40;1.67;;;;;;;9.68;58.67;99408.45;1699343;84;21185;-80
2023/04/02 13:38:51;;;;;;;3.58;2.00;;;;;;;9.60;60.36;99417.30;1699266;84;21743;-88
2023/04/02 13:42:06;;;;;;;4.50;2.17;;;;;;;9.42;62.20;99412.25;1700431;84;21777;-84
2023/04/02 13:45:12;;;;;;;3.40;2.00;;;;;;;9.50;63.91;99409.91;1700124;84;21213;-85
2023/04/02 13:48:24;;;;;;;2.77;1.95;;;;;;;9.46;66.65;99406.73;1704295;84;21201;-86
2023/04/02 13:51:46;;;;;;;3.65;2.00;;;;;;;9.37;67.42;99414.18;1700545;84;21758;-81
2023/04/02 13:55:00;;;;;;;3.12;1.80;;;;;;;9.37;67.17;99412.81;1700547;84;21238;-85
2023/04/02 13:58:06;;;;;;;3.27;2.02;;;;;;;9.44;67.51;99411.00;1704435;84;21194;-79
2023/04/02 14:01:13;;;;;;;4.92;1.70;;;;;;;9.52;66.19;99416.04;1697158;84;21194;-79
2023/04/02 14:04:20;;;;;;;4.72;1.67;;;;;;;9.36;66.32;99408.41;1672175;86;21249;-79
2023/04/02 14:07:54;;;;;;;2.17;1.50;;;;;;;8.99;66.50;99416.19;1672403;86;21229;-79
2023/04/02 14:11:27;;;;;;;3.52;1.95;;;;;;;8.96;66.97;99413.30;1672318;86;21221;-79
2023/04/02 14:14:59;;;;;;;7.70;2.92;;;;;;;9.23;67.57;99403.29;1672344;86;21225;-88
2023/04/02 14:18:31;;;;;;;5.37;2.90;;;;;;;8.78;69.59;99399.18;1672460;86;21253;-87
2023/04/02 14:21:44;;;;;;;6.37;3.45;;;;;;;8.77;71.08;99395.29;1660634;86;21678;-84
2023/04/02 14:25:13;;;;;;;13.60;3.75;;;;;;;8.78;72.33;99397.81;1659240;86;21256;-86
2023/04/02 14:28:41;;;;;;;8.05;4.03;;;;;;;8.10;76.09;99405.59;1660620;86;21172;-86
2023/04/02 14:32:06;;;;;;;10.00;5.40;;;;;;;7.83;79.00;99406.45;1688177;85;21232;-86
2023/04/02 14:35:31;;;;;;;13.20;6.72;;;;;;;8.37;78.52;99404.19;1688314;84;21248;-78
2023/04/02 14:38:53;;;;;;;7.37;5.05;;;;;;;7.73;81.47;99400.92;1658587;86;21224;-79
2023/04/02 14:42:05;;;;;;;11.10;5.87;;;;;;;7.57;83.47;99396.41;1598495;86;21790;-80
2023/04/02 14:45:33;;;;;;;17.25;10.53;;;;;;;7.62;84.08;99391.27;1659729;86;21208;-86
2023/04/02 14:49:18;;;;;;;11.38;7.40;;;;;;;7.66;84.47;99392.61;1688354;85;21714;-80
2023/04/02 14:52:26;;;;;;;12.18;5.92;;;;;;;7.53;85.42;99393.22;1688294;85;21197;-80
2023/04/02 14:55:46;;;;;;;12.67;7.30;;;;;;;7.45;86.81;99382.89;1688463;84;21221;-80
2023/04/02 14:58:55;;;;;;;18.65;9.83;;;;;;;7.40;87.74;99373.39;1688214;84;22034;-80
2023/04/02 15:02:31;;;;;;;26.37;12.88;;;;;;;7.38;88.24;99377.30;1688168;85;21285;-86
2023/04/02 15:06:01;;;;;;;34.45;18.55;;;;;;;7.36;88.97;99374.77;1687141;84;21252;-88
2023/04/02 15:09:13;;;;;;;36.98;21.75;;;;;;;7.35;89.20;99370.36;1686995;84;21245;-87
2023/04/02 15:12:29;;;;;;;72.22;34.25;;;;;;;7.46;89.18;99376.42;1688442;85;21170;-87